Time;durP1;ratioP1;P1;durP2;ratioP2;P2;SDS_P1;SDS_P2;PMS_P1;PMS_P2;Temp;Humidity;BMP_temperature;BMP_pressure;BME280_temperature;BME280_humidity;BME280_pressure;Samples;Min_cycle;Max_cycle;Signal;HPM_P1;HPM_P2
2021/11/12 00:13:30;;;;;;;355.15;46.72;;;3.50;99.90;;;;;;5077724;28;20543;-54
2021/11/12 00:16:00;;;;;;;337.83;43.50;;;3.30;99.90;;;;;;5073378;28;20440;-54
2021/11/12 00:18:31;;;;;;;357.10;44.80;;;3.30;99.90;;;;;;5081252;28;20398;-53
2021/11/12 00:20:59;;;;;;;277.88;41.10;;;3.70;99.90;;;;;;5090889;28;20457;-53
2021/11/12 00:23:27;;;;;;;328.27;43.65;;;3.30;99.90;;;;;;5078943;28;21048;-53
2021/11/12 00:25:53;;;;;;;343.52;50.17;;;4.90;99.90;;;;;;5088418;28;20397;-54
2021/11/12 00:28:23;;;;;;;228.18;40.05;;;5.20;99.90;;;;;;5076668;28;20396;-52
2021/11/12 00:39:01;;;;;;;238.15;41.40;;;4.00;99.90;;;;;;5079144;28;20413;-53
2021/11/12 00:41:37;;;;;;;262.42;39.75;;;3.60;99.90;;;;;;5076837;28;20506;-52
2021/11/12 00:44:22;;;;;;;411.83;53.00;;;3.50;99.90;;;;;;5084463;28;20502;-53
2021/11/12 00:47:53;;;;;;;335.70;45.08;;;4.80;99.90;;;;;;5076776;28;20405;-53
2021/11/12 00:49:44;;;;;;;430.13;54.30;;;3.40;99.90;;;;;;5062734;28;20455;-54
2021/11/12 00:52:14;;;;;;;266.65;44.35;;;3.40;99.90;;;;;;5079260;28;21189;-53
2021/11/12 00:54:40;;;;;;;319.30;45.95;;;3.40;99.90;;;;;;5090952;28;20928;-53
2021/11/12 00:57:07;;;;;;;234.67;38.57;;;3.40;99.90;;;;;;5086665;28;20401;-53
2021/11/12 00:59:33;;;;;;;370.30;50.67;;;3.30;99.90;;;;;;5079827;28;20407;-53
2021/11/12 01:01:59;;;;;;;298.52;44.30;;;4.40;99.90;;;;;;5070219;28;20474;-53
2021/11/12 01:04:25;;;;;;;326.17;47.67;;;3.30;99.90;;;;;;5070873;28;20455;-52
2021/11/12 01:06:51;;;;;;;336.17;45.58;;;3.50;99.90;;;;;;5073683;28;20448;-54
2021/11/12 01:09:20;;;;;;;364.77;53.35;;;3.00;99.90;;;;;;5079266;28;20467;-53
2021/11/12 01:11:48;;;;;;;259.60;42.42;;;3.00;99.90;;;;;;5070132;28;20968;-54
2021/11/12 01:14:22;;;;;;;279.52;40.72;;;3.40;99.90;;;;;;5069634;28;20384;-53
2021/11/12 01:16:48;;;;;;;203.30;35.85;;;3.10;99.90;;;;;;5070230;28;20511;-54
2021/11/12 01:19:14;;;;;;;296.20;40.60;;;3.10;99.90;;;;;;5069795;28;20685;-53
2021/11/12 01:21:42;;;;;;;283.65;40.08;;;3.20;99.90;;;;;;5052754;28;20765;-53
2021/11/12 01:24:08;;;;;;;274.73;40.90;;;2.90;99.90;;;;;;5069115;28;20437;-53
2021/11/12 01:26:35;;;;;;;302.95;44.15;;;3.30;99.90;;;;;;5069948;28;20391;-53
2021/11/12 01:29:01;;;;;;;205.57;37.58;;;4.70;99.90;;;;;;5069594;28;20388;-53
2021/11/12 01:31:28;;;;;;;279.77;40.38;;;5.00;99.90;;;;;;5070312;28;20415;-54
2021/11/12 01:34:05;;;;;;;220.25;35.72;;;3.40;99.90;;;;;;5069757;28;20372;-55
2021/11/12 01:36:36;;;;;;;234.77;36.67;;;3.30;99.90;;;;;;5070058;28;20415;-53
2021/11/12 01:39:07;;;;;;;211.45;36.45;;;3.20;99.90;;;;;;5069382;28;20383;-53
2021/11/12 01:41:34;;;;;;;281.23;41.45;;;4.40;99.90;;;;;;5070233;28;20857;-53
2021/11/12 01:44:06;;;;;;;257.98;41.45;;;3.30;99.90;;;;;;5051138;28;20469;-53
2021/11/12 01:49:24;;;;;;;415.58;51.22;;;3.50;99.90;;;;;;5069416;28;20900;-53
2021/11/12 01:52:17;;;;;;;213.02;37.20;;;3.30;99.90;;;;;;5069833;28;20416;-54
2021/11/12 01:54:47;;;;;;;347.83;47.80;;;3.30;99.90;;;;;;5069074;28;20442;-54
2021/11/12 01:59:43;;;;;;;267.80;41.25;;;3.40;99.90;;;;;;5069780;28;20386;-53
2021/11/12 02:02:09;;;;;;;191.88;36.33;;;5.30;99.90;;;;;;5068992;28;20384;-53
2021/11/12 02:04:37;;;;;;;254.77;39.33;;;3.40;99.90;;;;;;5069352;28;20384;-53
2021/11/12 02:07:03;;;;;;;189.25;35.50;;;3.40;99.90;;;;;;5068814;28;20383;-53
2021/11/12 02:09:30;;;;;;;242.52;43.35;;;3.40;99.90;;;;;;5069390;28;20376;-53
2021/11/12 02:14:49;;;;;;;268.48;43.67;;;3.30;99.90;;;;;;5069466;28;20383;-55
2021/11/12 02:17:22;;;;;;;147.30;32.33;;;3.30;99.90;;;;;;5068328;28;20396;-53
2021/11/12 02:19:57;;;;;;;143.73;31.23;;;3.40;99.90;;;;;;5051438;28;20391;-53
2021/11/12 02:22:26;;;;;;;213.00;36.20;;;3.40;99.90;;;;;;5068809;28;20853;-53
2021/11/12 02:25:19;;;;;;;156.02;33.58;;;3.20;99.90;;;;;;5068824;28;20753;-53
2021/11/12 02:27:50;;;;;;;245.32;38.15;;;4.00;99.90;;;;;;5068583;28;20441;-53
2021/11/12 02:30:22;;;;;;;128.85;33.22;;;3.10;99.90;;;;;;5068473;28;20462;-53
2021/11/12 02:33:11;;;;;;;181.00;37.08;;;4.60;99.90;;;;;;5069424;28;20471;-53
2021/11/12 02:35:41;;;;;;;165.27;33.92;;;3.20;99.90;;;;;;5068785;28;20399;-53
2021/11/12 02:38:08;;;;;;;186.63;35.80;;;4.00;99.90;;;;;;5067953;28;20396;-53
2021/11/12 02:40:35;;;;;;;196.75;34.92;;;3.20;99.90;;;;;;5068992;28;20391;-53
2021/11/12 02:43:02;;;;;;;203.73;34.53;;;3.30;99.90;;;;;;5073343;28;20434;-54
2021/11/12 02:45:29;;;;;;;215.75;40.55;;;3.90;99.90;;;;;;5082376;28;20415;-53
2021/11/12 02:47:55;;;;;;;213.30;39.15;;;3.20;99.90;;;;;;5069018;28;21033;-53
2021/11/12 02:50:21;;;;;;;192.40;38.15;;;4.40;99.90;;;;;;5068413;28;20404;-53
2021/11/12 02:52:52;;;;;;;398.88;50.83;;;3.20;99.90;;;;;;5051012;28;20391;-53
2021/11/12 02:55:18;;;;;;;149.10;32.08;;;3.80;99.90;;;;;;5068149;28;20419;-53
2021/11/12 02:57:44;;;;;;;244.07;39.65;;;3.80;99.90;;;;;;5071573;28;20407;-54
2021/11/12 03:00:13;;;;;;;235.80;38.63;;;4.90;99.90;;;;;;5068256;28;20441;-53
2021/11/12 03:02:39;;;;;;;264.35;39.97;;;3.30;99.90;;;;;;5088295;28;20410;-53
2021/11/12 03:05:05;;;;;;;191.10;36.60;;;3.30;99.90;;;;;;5087945;28;20429;-53
2021/11/12 03:07:31;;;;;;;243.77;43.75;;;3.20;99.90;;;;;;5089161;28;20469;-53
2021/11/12 03:09:57;;;;;;;222.77;38.80;;;3.30;99.90;;;;;;5088686;28;21253;-53
2021/11/12 03:12:22;;;;;;;165.23;33.83;;;3.30;99.90;;;;;;5088161;28;20409;-54
2021/11/12 03:14:49;;;;;;;240.68;39.67;;;3.30;99.90;;;;;;5088592;28;20374;-53
2021/11/12 03:17:15;;;;;;;251.90;41.00;;;3.40;99.90;;;;;;5087939;28;20905;-53
2021/11/12 03:19:43;;;;;;;200.90;38.15;;;3.40;99.90;;;;;;5088870;28;20378;-54
2021/11/12 03:22:11;;;;;;;163.93;32.13;;;3.50;99.90;;;;;;5087873;28;20417;-53
2021/11/12 03:24:45;;;;;;;196.95;37.35;;;4.40;99.90;;;;;;5088375;28;20839;-53
2021/11/12 03:27:17;;;;;;;186.27;34.85;;;3.40;99.90;;;;;;5088070;28;20461;-53
2021/11/12 04:02:17;;;;;;;245.25;39.85;;;3.00;99.90;;;;;;5091445;28;20795;-53
2021/11/12 04:21:13;;;;;;;265.10;43.20;;;3.50;99.90;;;;;;5091863;28;20473;-53
2021/11/12 05:12:43;;;;;;;333.40;46.43;;;3.30;99.90;;;;;;5081916;28;20405;-53
2021/11/12 05:50:18;;;;;;;142.25;32.30;;;3.20;99.90;;;;;;5083602;28;20442;-54
2021/11/12 05:55:10;;;;;;;157.40;34.27;;;3.30;99.90;;;;;;5085854;28;20720;-55
2021/11/12 05:57:38;;;;;;;251.98;41.45;;;3.30;99.90;;;;;;5081619;28;21087;-53
2021/11/12 06:00:16;;;;;;;159.02;33.95;;;3.20;99.90;;;;;;5074246;28;20420;-53
2021/11/12 06:02:42;;;;;;;147.82;32.78;;;3.20;99.90;;;;;;5084888;28;20841;-54
2021/11/12 06:05:08;;;;;;;184.00;39.47;;;3.50;99.90;;;;;;5086097;28;20398;-55
2021/11/12 06:07:34;;;;;;;271.58;45.35;;;3.20;99.90;;;;;;5082004;28;20478;-53
2021/11/12 06:10:00;;;;;;;149.30;30.10;;;3.10;99.90;;;;;;5084587;28;20396;-53
2021/11/12 06:12:28;;;;;;;228.50;35.33;;;3.00;99.90;;;;;;5085090;28;20446;-54
2021/11/12 06:14:54;;;;;;;219.38;36.40;;;4.10;99.90;;;;;;5086864;28;20426;-54
2021/11/12 06:17:20;;;;;;;179.37;34.23;;;3.10;99.90;;;;;;5086204;28;20441;-53
2021/11/12 06:19:46;;;;;;;217.97;38.43;;;3.00;99.90;;;;;;5085631;28;20411;-54
2021/11/12 06:22:11;;;;;;;219.77;35.90;;;2.90;99.90;;;;;;5064966;28;20411;-55
2021/11/12 06:24:38;;;;;;;136.00;31.58;;;3.00;99.90;;;;;;5085760;28;20394;-53
2021/11/12 06:27:05;;;;;;;183.55;35.40;;;3.00;99.90;;;;;;5087957;28;20386;-54
2021/11/12 06:29:31;;;;;;;195.15;34.95;;;3.00;99.90;;;;;;5084333;28;20394;-53
2021/11/12 06:31:56;;;;;;;351.17;49.37;;;2.90;99.90;;;;;;5087886;28;20436;-53
2021/11/12 06:34:22;;;;;;;203.05;36.92;;;3.20;99.90;;;;;;5084662;28;20408;-54
2021/11/12 06:36:48;;;;;;;251.85;40.42;;;2.90;99.90;;;;;;5085716;28;20768;-54
2021/11/12 06:39:14;;;;;;;130.15;33.00;;;4.60;99.90;;;;;;5085912;28;20378;-54
2021/11/12 06:49:48;;;;;;;175.88;36.42;;;3.20;99.90;;;;;;5076689;28;22401;-53
2021/11/12 06:52:14;;;;;;;139.27;35.80;;;2.70;99.90;;;;;;5080762;28;20390;-53
2021/11/12 06:54:40;;;;;;;138.60;33.07;;;2.80;99.90;;;;;;5083008;28;20903;-53
2021/11/12 06:57:06;;;;;;;142.13;35.42;;;3.70;99.90;;;;;;5076425;28;20809;-53
2021/11/12 06:59:31;;;;;;;139.77;33.43;;;2.70;99.90;;;;;;5076292;28;20376;-53
2021/11/12 07:01:57;;;;;;;170.67;38.30;;;2.70;99.90;;;;;;5078839;28;20374;-54
2021/11/12 07:04:23;;;;;;;153.20;37.92;;;3.00;99.90;;;;;;5072505;28;21070;-53
2021/11/12 07:06:48;;;;;;;214.07;37.37;;;2.70;99.90;;;;;;5055998;28;20757;-54
2021/11/12 07:09:14;;;;;;;142.50;33.38;;;2.80;99.90;;;;;;5076235;28;20839;-56
2021/11/12 07:11:40;;;;;;;203.82;36.85;;;2.80;99.90;;;;;;5076974;28;20410;-54
2021/11/12 07:14:06;;;;;;;227.68;41.80;;;2.90;99.90;;;;;;5078982;28;20799;-54
2021/11/12 07:16:32;;;;;;;237.13;39.07;;;2.90;99.90;;;;;;5058889;28;20414;-55
2021/11/12 07:18:58;;;;;;;181.43;34.25;;;3.00;99.90;;;;;;5079327;28;20409;-54
2021/11/12 07:21:25;;;;;;;108.20;29.38;;;3.10;99.90;;;;;;5079983;28;20374;-53
2021/11/12 07:23:53;;;;;;;96.93;29.27;;;3.00;99.90;;;;;;5072671;28;20384;-54
2021/11/12 07:26:19;;;;;;;116.10;27.85;;;3.70;99.90;;;;;;5071794;28;20383;-54
2021/11/12 07:28:47;;;;;;;113.70;30.05;;;2.90;99.90;;;;;;5077304;28;20383;-54
2021/11/12 07:31:13;;;;;;;107.50;30.10;;;3.00;99.90;;;;;;5074461;28;20426;-56
2021/11/12 07:33:39;;;;;;;179.18;37.20;;;3.00;99.90;;;;;;5087902;28;20487;-54
2021/11/12 07:36:24;;;;;;;191.88;40.80;;;3.10;99.90;;;;;;5088443;28;20493;-54
2021/11/12 07:39:15;;;;;;;179.10;35.90;;;3.40;99.90;;;;;;5085174;28;20393;-54
2021/11/12 07:46:44;;;;;;;109.90;29.13;;;4.10;99.90;;;;;;5076863;28;20433;-54
2021/11/12 07:49:11;;;;;;;186.20;33.72;;;4.50;99.90;;;;;;5090055;28;20564;-54
2021/11/12 07:51:40;;;;;;;241.48;39.45;;;3.20;99.90;;;;;;5076319;28;20379;-53
2021/11/12 07:54:06;;;;;;;141.77;35.55;;;3.60;99.90;;;;;;5082461;28;20898;-54
2021/11/12 07:56:32;;;;;;;165.10;34.45;;;3.60;99.90;;;;;;5076130;28;20472;-53
2021/11/12 07:58:58;;;;;;;1081.13;128.88;;;3.20;99.90;;;;;;5075975;28;20384;-54
2021/11/12 08:01:24;;;;;;;163.75;40.72;;;3.20;99.90;;;;;;5087541;28;20381;-54
2021/11/12 08:03:54;;;;;;;187.15;37.50;;;3.30;99.90;;;;;;5081917;28;20729;-54
2021/11/12 08:06:21;;;;;;;327.27;39.90;;;3.70;99.90;;;;;;5076559;28;20396;-55
2021/11/12 08:09:23;;;;;;;120.35;32.00;;;3.40;99.90;;;;;;5074944;28;20383;-54
2021/11/12 08:11:47;;;;;;;136.52;35.83;;;3.60;99.90;;;;;;5069715;28;20458;-54
2021/11/12 08:17:10;;;;;;;180.02;41.75;;;3.70;99.90;;;;;;5053055;28;20752;-54
2021/11/12 08:19:43;;;;;;;133.75;34.88;;;3.80;99.90;;;;;;5084955;28;20995;-53
2021/11/12 08:22:13;;;;;;;185.37;41.47;;;3.70;99.90;;;;;;5082264;28;20461;-54
2021/11/12 08:24:51;;;;;;;200.52;36.55;;;3.70;99.90;;;;;;5079288;28;20796;-54
2021/11/12 08:33:22;;;;;;;111.47;28.73;;;3.80;99.90;;;;;;4988481;28;20478;-54
2021/11/12 08:38:40;;;;;;;187.50;36.50;;;4.00;99.90;;;;;;5089315;28;20386;-56
2021/11/12 08:43:45;;;;;;;288.63;45.87;;;4.00;99.90;;;;;;5077807;28;20388;-54
2021/11/12 08:51:05;;;;;;;128.07;33.87;;;4.10;99.90;;;;;;5069474;28;20392;-54
2021/11/12 08:53:31;;;;;;;133.47;35.40;;;4.20;99.90;;;;;;5076871;28;20393;-54
2021/11/12 08:55:57;;;;;;;135.10;30.83;;;4.30;99.90;;;;;;5062545;28;20807;-54
2021/11/12 08:58:22;;;;;;;163.88;36.90;;;4.30;99.90;;;;;;5084176;28;20469;-54
2021/11/12 09:00:48;;;;;;;146.97;33.93;;;4.10;99.90;;;;;;5074209;28;20471;-54
2021/11/12 09:03:14;;;;;;;152.77;35.50;;;4.10;99.90;;;;;;5086784;28;20851;-54
2021/11/12 09:05:40;;;;;;;132.93;33.25;;;4.20;99.90;;;;;;5085652;28;20413;-54
2021/11/12 09:08:05;;;;;;;174.13;36.17;;;4.20;99.90;;;;;;5086269;28;20429;-54
2021/11/12 09:10:32;;;;;;;200.18;39.92;;;4.20;99.90;;;;;;5089789;28;20438;-54
2021/11/12 09:13:00;;;;;;;157.98;37.78;;;4.20;99.90;;;;;;5083121;28;20399;-54
2021/11/12 09:15:32;;;;;;;91.30;31.60;;;4.30;99.90;;;;;;5087483;28;20925;-55
2021/11/12 09:18:00;;;;;;;102.63;32.90;;;4.30;99.90;;;;;;5080138;28;20416;-54
2021/11/12 09:20:28;;;;;;;115.63;30.65;;;4.40;99.90;;;;;;5078504;28;20384;-54
2021/11/12 09:22:54;;;;;;;102.20;31.30;;;4.50;99.90;;;;;;5071076;28;20414;-55
2021/11/12 09:25:22;;;;;;;93.25;32.72;;;4.50;99.90;;;;;;5077614;28;20395;-54
2021/11/12 09:27:48;;;;;;;74.93;29.80;;;4.50;99.90;;;;;;5090153;28;20389;-54
2021/11/12 09:30:24;;;;;;;66.60;26.23;;;4.50;99.90;;;;;;5072394;28;20389;-54
2021/11/12 09:32:54;;;;;;;113.50;31.58;;;4.60;99.90;;;;;;5073537;28;20893;-54
2021/11/12 09:35:22;;;;;;;82.53;29.40;;;4.60;99.90;;;;;;5080936;28;20913;-55
2021/11/12 09:37:48;;;;;;;78.72;30.58;;;4.50;99.90;;;;;;5083437;28;20401;-54
2021/11/12 09:40:14;;;;;;;82.63;30.35;;;4.50;99.90;;;;;;5079390;28;20398;-54
2021/11/12 09:42:41;;;;;;;87.78;28.10;;;4.60;99.90;;;;;;5080748;28;20400;-54
2021/11/12 09:45:09;;;;;;;79.70;30.15;;;4.60;99.90;;;;;;5081917;28;20378;-54
2021/11/12 09:47:36;;;;;;;130.48;34.13;;;4.70;99.90;;;;;;5079136;28;20455;-54
2021/11/12 09:50:06;;;;;;;107.47;32.05;;;4.70;99.90;;;;;;5072828;28;20390;-54
2021/11/12 09:52:32;;;;;;;81.82;31.45;;;4.80;99.90;;;;;;5077790;28;20506;-54
2021/11/12 09:54:58;;;;;;;78.03;30.20;;;4.90;99.90;;;;;;5084493;28;20426;-54
2021/11/12 09:57:25;;;;;;;82.90;28.60;;;5.00;99.90;;;;;;5076399;28;20505;-54
2021/11/12 09:59:58;;;;;;;130.48;33.30;;;5.00;99.90;;;;;;5085180;28;20431;-53
2021/11/12 10:02:27;;;;;;;78.38;32.55;;;5.10;99.90;;;;;;5079659;28;20860;-54
2021/11/12 10:04:52;;;;;;;81.07;28.50;;;6.00;99.90;;;;;;5072976;28;20486;-54
2021/11/12 10:07:19;;;;;;;98.00;31.70;;;5.30;99.90;;;;;;5076531;28;20966;-56
2021/11/12 10:09:48;;;;;;;76.45;31.00;;;5.10;99.90;;;;;;5080005;28;20425;-54
2021/11/12 10:12:14;;;;;;;77.95;29.95;;;5.40;99.90;;;;;;5075272;28;20449;-54
2021/11/12 10:17:13;;;;;;;64.50;27.20;;;5.20;99.90;;;;;;5080630;28;20449;-53
2021/11/12 10:19:48;;;;;;;96.03;29.87;;;5.20;99.90;;;;;;5077674;28;20417;-54
2021/11/12 10:22:22;;;;;;;151.85;37.28;;;5.00;99.90;;;;;;5078733;28;20371;-54
2021/11/12 10:24:48;;;;;;;91.93;29.73;;;4.90;99.90;;;;;;5078399;28;20383;-54
2021/11/12 10:27:18;;;;;;;66.85;27.67;;;5.00;99.90;;;;;;5081468;28;20398;-54
2021/11/12 10:29:53;;;;;;;105.40;31.85;;;5.00;99.90;;;;;;5080797;28;20376;-52
2021/11/12 10:32:25;;;;;;;85.78;29.88;;;5.10;99.90;;;;;;5077977;28;20544;-55
2021/11/12 10:35:02;;;;;;;95.20;31.53;;;5.20;99.90;;;;;;5078398;28;20380;-53
2021/11/12 10:37:33;;;;;;;93.70;31.13;;;5.20;99.90;;;;;;5077721;28;20398;-54
2021/11/12 10:40:11;;;;;;;88.10;31.35;;;5.30;99.90;;;;;;5084105;28;20400;-54
2021/11/12 10:42:39;;;;;;;84.97;30.85;;;5.00;99.90;;;;;;5079158;28;20449;-54
2021/11/12 10:45:09;;;;;;;97.00;30.23;;;5.20;99.90;;;;;;5077326;28;20402;-54
2021/11/12 10:47:44;;;;;;;77.25;30.10;;;5.10;99.90;;;;;;5059379;28;20390;-54
2021/11/12 10:50:10;;;;;;;88.85;31.33;;;5.10;99.90;;;;;;5080224;28;20386;-52
2021/11/12 10:52:38;;;;;;;86.23;30.47;;;5.20;99.90;;;;;;5084023;28;20897;-52
2021/11/12 10:55:10;;;;;;;91.35;30.85;;;6.10;99.90;;;;;;5076861;28;20399;-53
2021/11/12 10:58:01;;;;;;;109.30;33.17;;;5.10;99.90;;;;;;5085338;28;20397;-53
2021/11/12 11:00:32;;;;;;;106.18;32.05;;;5.00;99.90;;;;;;5087767;28;20879;-53
2021/11/12 11:03:06;;;;;;;99.80;30.45;;;5.00;99.90;;;;;;5089671;28;20378;-53
2021/11/12 11:05:41;;;;;;;76.05;31.92;;;5.10;99.90;;;;;;5088921;28;20389;-53
2021/11/12 11:08:30;;;;;;;70.53;29.10;;;5.30;99.90;;;;;;5089065;28;20386;-53
2021/11/12 11:11:02;;;;;;;73.93;29.80;;;5.40;99.90;;;;;;5088736;28;21010;-53
2021/11/12 11:13:33;;;;;;;81.40;29.45;;;5.50;99.90;;;;;;5083068;28;20399;-53
2021/11/12 11:16:02;;;;;;;70.57;30.05;;;5.30;99.90;;;;;;5068810;28;20435;-53
2021/11/12 11:18:37;;;;;;;83.65;33.55;;;5.30;99.90;;;;;;5068271;28;20461;-54
2021/11/12 11:23:43;;;;;;;69.47;29.00;;;5.50;99.90;;;;;;5068067;28;20387;-54
2021/11/12 11:26:09;;;;;;;66.90;29.55;;;5.50;99.90;;;;;;5068603;28;20453;-54
2021/11/12 11:28:36;;;;;;;94.40;30.20;;;5.50;99.90;;;;;;5068091;28;20403;-53
2021/11/12 11:31:08;;;;;;;76.20;31.75;;;5.50;99.90;;;;;;5068458;28;20399;-53
2021/11/12 11:33:35;;;;;;;70.63;29.20;;;5.50;99.90;;;;;;5067680;28;20383;-54
2021/11/12 11:36:03;;;;;;;61.00;28.80;;;5.80;99.90;;;;;;5068241;28;20480;-52
2021/11/12 11:38:31;;;;;;;96.30;31.17;;;5.80;99.90;;;;;;5049728;28;20387;-54
2021/11/12 11:40:59;;;;;;;81.30;31.05;;;5.80;99.90;;;;;;5068212;28;20387;-53
2021/11/12 11:43:25;;;;;;;70.13;29.33;;;5.80;99.90;;;;;;5068530;28;20884;-53
2021/11/12 11:45:57;;;;;;;58.03;30.02;;;5.70;99.90;;;;;;5067829;28;20472;-52
2021/11/12 11:48:23;;;;;;;73.22;35.58;;;5.80;99.90;;;;;;5068558;28;20394;-52
2021/11/12 11:50:55;;;;;;;57.95;30.67;;;6.00;99.90;;;;;;5067477;28;20380;-52
2021/11/12 11:53:47;;;;;;;57.55;29.70;;;6.20;99.90;;;;;;5068396;28;20372;-52
2021/11/12 11:56:27;;;;;;;58.08;30.10;;;6.30;99.90;;;;;;5068375;28;20404;-52
2021/11/12 11:58:56;;;;;;;60.53;29.67;;;6.30;99.90;;;;;;5067803;28;20389;-52
2021/11/12 12:01:34;;;;;;;73.20;30.08;;;6.30;99.90;;;;;;5068074;28;20467;-52
2021/11/12 12:04:09;;;;;;;389.35;179.73;;;6.20;99.90;;;;;;5067933;28;20380;-52
2021/11/12 12:06:36;;;;;;;61.20;30.30;;;6.20;99.90;;;;;;5081054;28;20405;-53
2021/11/12 12:09:06;;;;;;;92.22;34.28;;;6.30;99.90;;;;;;5089386;28;20370;-52
2021/11/12 12:11:50;;;;;;;88.63;36.80;;;6.10;99.90;;;;;;5090439;28;20444;-52
2021/11/12 12:14:29;;;;;;;63.38;31.27;;;6.10;99.90;;;;;;5091980;28;20458;-52
2021/11/12 12:17:10;;;;;;;86.13;31.67;;;6.20;99.90;;;;;;5091730;28;20410;-52
2021/11/12 12:20:13;;;;;;;81.60;30.40;;;6.30;99.90;;;;;;5091390;28;20435;-52
2021/11/12 13:25:42;;;;;;;79.00;31.47;;;5.90;99.90;;;;;;5079117;28;20406;-54
2021/11/12 13:28:27;;;;;;;69.40;31.15;;;5.90;99.90;;;;;;5073316;28;20399;-53
2021/11/12 13:31:14;;;;;;;61.53;31.27;;;5.90;99.90;;;;;;5071108;28;20451;-52
2021/11/12 13:33:47;;;;;;;64.93;32.85;;;5.90;99.90;;;;;;5081328;28;20449;-53
2021/11/12 13:36:25;;;;;;;80.75;32.90;;;5.80;99.90;;;;;;5076311;28;20412;-53
2021/11/12 13:39:03;;;;;;;57.97;29.05;;;5.60;99.90;;;;;;5077472;28;20392;-53
2021/11/12 13:41:41;;;;;;;79.70;31.08;;;5.70;99.90;;;;;;5080914;28;20492;-53
2021/11/12 13:44:12;;;;;;;63.00;31.88;;;5.70;99.90;;;;;;5083102;28;20394;-53
2021/11/12 13:46:56;;;;;;;65.70;35.05;;;5.80;99.90;;;;;;5077591;28;20438;-55
2021/11/12 13:49:35;;;;;;;65.90;33.53;;;5.80;99.90;;;;;;5079245;28;20489;-54
2021/11/12 13:52:12;;;;;;;78.43;37.85;;;5.60;99.90;;;;;;5080600;28;20491;-53
2021/11/12 13:55:07;;;;;;;70.60;34.93;;;5.60;99.90;;;;;;5074523;28;21212;-53
2021/11/12 13:57:34;;;;;;;60.67;30.02;;;5.50;99.90;;;;;;5073987;28;20445;-57
2021/11/12 14:00:07;;;;;;;61.70;29.65;;;5.50;99.90;;;;;;5074653;28;20404;-55
2021/11/12 14:03:02;;;;;;;60.73;29.20;;;5.30;99.90;;;;;;5071549;28;20380;-54
2021/11/12 14:05:28;;;;;;;53.77;28.10;;;5.40;99.90;;;;;;5059843;28;20873;-54
2021/11/12 14:08:08;;;;;;;78.45;29.42;;;5.30;99.90;;;;;;5071735;28;20387;-54
2021/11/12 14:10:39;;;;;;;55.00;28.95;;;5.40;99.90;;;;;;5072847;28;20426;-55
2021/11/12 14:13:06;;;;;;;71.03;29.67;;;5.30;99.90;;;;;;5075705;28;20415;-55
2021/11/12 14:15:45;;;;;;;74.75;29.05;;;5.30;99.90;;;;;;5076031;28;20487;-54
2021/11/12 14:46:07;;;;;;;93.97;33.90;;;5.70;99.90;;;;;;5072049;28;20469;-55
2021/11/12 14:49:06;;;;;;;160.07;41.72;;;4.50;99.90;;;;;;5071583;28;20407;-55
2021/11/12 14:51:36;;;;;;;83.63;31.17;;;4.50;99.90;;;;;;5075718;28;20389;-55
2021/11/12 14:54:07;;;;;;;89.28;33.40;;;4.40;99.90;;;;;;5078409;28;20380;-55
2021/11/12 14:56:33;;;;;;;85.85;31.63;;;4.40;99.90;;;;;;5078137;28;20409;-55
2021/11/12 14:59:02;;;;;;;94.53;29.67;;;4.50;99.90;;;;;;5076493;28;20896;-54
2021/11/12 15:01:30;;;;;;;107.13;30.95;;;4.50;99.90;;;;;;5080479;28;20392;-54
2021/11/12 15:03:56;;;;;;;139.73;30.85;;;4.60;99.90;;;;;;5076643;28;20366;-54
2021/11/12 15:06:24;;;;;;;100.85;29.88;;;5.60;99.90;;;;;;5077679;28;20866;-54
2021/11/12 15:08:56;;;;;;;99.43;33.73;;;4.90;99.90;;;;;;5060462;28;20395;-55
2021/11/12 15:11:26;;;;;;;87.50;29.92;;;4.30;99.90;;;;;;5078241;28;20394;-55
2021/11/12 15:13:54;;;;;;;100.15;31.33;;;5.80;99.90;;;;;;5076626;28;20398;-55
2021/11/12 15:16:22;;;;;;;90.25;28.15;;;4.40;99.90;;;;;;5079073;28;20424;-56
2021/11/12 15:18:51;;;;;;;118.55;29.42;;;4.50;99.90;;;;;;5079711;28;20395;-54
2021/11/12 15:21:22;;;;;;;119.50;33.35;;;4.50;99.90;;;;;;5078377;28;20740;-54
2021/11/12 15:26:47;;;;;;;137.20;35.13;;;4.40;99.90;;;;;;5077813;28;20759;-54
2021/11/12 15:29:30;;;;;;;229.70;40.35;;;4.30;99.90;;;;;;5078602;28;20405;-55
2021/11/12 15:32:02;;;;;;;140.05;35.60;;;4.10;99.90;;;;;;5075641;28;20379;-55
2021/11/12 15:34:29;;;;;;;135.43;35.00;;;4.20;99.90;;;;;;5076370;28;20375;-56
2021/11/12 15:37:06;;;;;;;149.32;36.58;;;5.80;99.90;;;;;;5071098;28;20410;-55
2021/11/12 15:39:58;;;;;;;242.32;43.67;;;3.90;99.90;;;;;;5074568;28;20453;-55
2021/11/12 15:44:53;;;;;;;261.33;55.50;;;4.20;99.90;;;;;;5078047;28;20383;-54
2021/11/12 15:47:31;;;;;;;161.27;47.80;;;4.30;99.90;;;;;;5062941;28;20410;-55
2021/11/12 15:50:09;;;;;;;155.63;38.40;;;4.40;99.90;;;;;;5080098;28;20382;-55
2021/11/12 15:52:45;;;;;;;208.30;41.67;;;4.40;99.90;;;;;;5084594;28;20393;-54
2021/11/12 16:01:21;;;;;;;118.78;31.85;;;4.40;99.90;;;;;;5082583;28;20913;-54
2021/11/12 16:22:03;;;;;;;292.85;44.25;;;4.50;99.90;;;;;;5062886;28;20399;-54
2021/11/12 16:27:10;;;;;;;292.42;43.92;;;4.40;99.90;;;;;;5060898;28;20412;-53
2021/11/12 16:32:08;;;;;;;287.92;43.15;;;4.30;99.90;;;;;;5070005;28;20386;-53
2021/11/12 16:34:42;;;;;;;384.83;49.17;;;4.30;99.90;;;;;;5059015;28;20944;-54
2021/11/12 16:37:10;;;;;;;369.15;49.75;;;4.20;99.90;;;;;;5062727;28;20406;-54
2021/11/12 16:39:45;;;;;;;309.98;38.47;;;4.10;99.90;;;;;;5059660;28;20398;-53
2021/11/12 16:42:22;;;;;;;166.43;31.83;;;4.20;99.90;;;;;;5061974;28;20399;-54
2021/11/12 16:44:55;;;;;;;338.33;46.97;;;4.30;99.90;;;;;;5051463;28;20460;-53
2021/11/12 16:57:59;;;;;;;318.05;48.78;;;5.90;99.90;;;;;;5070355;28;20714;-54
2021/11/12 17:03:02;;;;;;;221.83;36.57;;;4.40;99.90;;;;;;5054213;28;20400;-54
2021/11/12 17:05:50;;;;;;;229.95;37.97;;;4.40;99.90;;;;;;5048416;28;20427;-55
2021/11/12 17:16:51;;;;;;;298.05;44.08;;;4.40;99.90;;;;;;5080413;28;20496;-52
2021/11/12 17:19:19;;;;;;;252.10;43.88;;;4.40;99.90;;;;;;5070811;28;20455;-54
2021/11/12 17:49:05;;;;;;;260.90;38.90;;;4.20;99.90;;;;;;5080337;28;20369;-56
2021/11/12 18:02:24;;;;;;;87.53;25.42;;;5.70;99.90;;;;;;5074622;28;20394;-56
2021/11/12 18:05:01;;;;;;;90.27;27.60;;;4.30;99.90;;;;;;5075113;28;20426;-55
2021/11/12 18:13:07;;;;;;;68.05;23.48;;;4.10;99.90;;;;;;5082818;28;20536;-53
2021/11/12 21:45:37;;;;;;;223.60;38.53;;;3.40;99.90;;;;;;5075337;28;20363;-53
2021/11/12 21:48:03;;;;;;;550.95;73.20;;;3.20;99.90;;;;;;5077301;28;20378;-53
2021/11/12 21:50:32;;;;;;;219.47;43.47;;;3.20;99.90;;;;;;5070621;28;20462;-54
2021/11/12 21:52:58;;;;;;;500.52;63.53;;;3.60;99.90;;;;;;5075572;28;20380;-54
2021/11/12 21:55:24;;;;;;;207.85;42.22;;;3.80;99.90;;;;;;5075910;28;20375;-54
2021/11/12 21:57:50;;;;;;;419.10;58.53;;;3.50;99.90;;;;;;5075651;28;20453;-54
2021/11/12 22:00:16;;;;;;;232.43;39.30;;;3.30;99.90;;;;;;5078710;28;20382;-55
2021/11/12 22:02:42;;;;;;;176.83;38.53;;;3.40;99.90;;;;;;5079252;28;20855;-53
2021/11/12 22:05:08;;;;;;;249.85;44.50;;;3.50;99.90;;;;;;5076879;28;20467;-55
2021/11/12 22:07:36;;;;;;;243.05;42.65;;;3.40;99.90;;;;;;5077705;28;20385;-54
2021/11/12 22:10:06;;;;;;;236.95;45.40;;;4.20;99.90;;;;;;5079748;28;20540;-54
2021/11/12 22:12:32;;;;;;;186.40;42.08;;;3.30;99.90;;;;;;5083448;28;20938;-54
2021/11/12 22:14:58;;;;;;;221.27;50.10;;;4.80;99.90;;;;;;5076167;28;20533;-54
2021/11/12 22:17:24;;;;;;;307.30;54.20;;;3.40;99.90;;;;;;5078922;28;20933;-54
2021/11/12 22:19:49;;;;;;;220.30;43.67;;;3.40;99.90;;;;;;5076125;28;20394;-54
2021/11/12 22:22:15;;;;;;;229.17;46.07;;;3.60;99.90;;;;;;5082524;28;20386;-54
2021/11/12 22:24:41;;;;;;;171.80;44.57;;;3.20;99.90;;;;;;5064565;28;20427;-54
2021/11/12 22:27:07;;;;;;;188.10;40.43;;;3.30;99.90;;;;;;5076408;28;20395;-55
2021/11/12 22:29:33;;;;;;;165.73;39.83;;;3.40;99.90;;;;;;5085605;28;20478;-53
2021/11/12 22:32:00;;;;;;;185.13;39.72;;;3.40;99.90;;;;;;5075363;28;20406;-54
2021/11/12 22:34:26;;;;;;;219.65;43.53;;;3.30;99.90;;;;;;5079024;28;20415;-54
2021/11/12 22:36:52;;;;;;;150.93;37.25;;;3.10;99.90;;;;;;5087269;28;20419;-55
2021/11/12 22:39:18;;;;;;;168.88;41.20;;;3.20;99.90;;;;;;5076028;28;20409;-54
2021/11/12 22:41:45;;;;;;;181.43;42.20;;;3.20;99.90;;;;;;5083658;28;20499;-53
2021/11/12 22:44:11;;;;;;;153.07;38.08;;;3.30;99.90;;;;;;5079774;28;20413;-55
2021/11/12 22:46:38;;;;;;;178.68;39.38;;;3.80;99.90;;;;;;5059460;28;20428;-55
2021/11/12 22:49:05;;;;;;;312.20;53.30;;;4.70;99.90;;;;;;5072144;28;20388;-53